Pond Bank, Pennsylvania
Current Conditions -  °F | °C
As of 5:53 AM on Friday 31 Oct 2014 (Local Time) from KHGR Reporting Station
Overcast Overcast  
Wind Chill: 44°   Ceiling: 5500
Heat Index: 44°   Visibility: 10mi
Dew Point: 37°   Wind: 3mph
Humidity: 76%   Direction: 70°ENE
Pressure: 29.99"   Gusts: NA
Location:  39.9438°N, 77.6827°W
Report Text: KHGR 310953Z AUTO 07003KT 10SM OVC055 07/03 A2999 RMK AO2 SLP169 T00670028
Loading
Personal Weather Stations






























Interactive Weather Map
Tropical Storm Tracking
New forecast layout! Learn more

10-Day Weather Forecast

Advertisements
Track Severe Weather on mobile